createdAt,value
2018-12-18T00:00:24.003Z,6.80
2018-12-18T00:02:54.753Z,6.70
2018-12-18T00:05:30.983Z,6.70
2018-12-18T00:07:59.797Z,6.70
2018-12-18T00:10:34.121Z,6.70
2018-12-18T00:13:02.894Z,6.70
2018-12-18T00:15:31.733Z,6.70
2018-12-18T00:18:00.631Z,6.70
2018-12-18T00:20:29.498Z,6.70
2018-12-18T00:22:58.367Z,6.60
2018-12-18T00:25:27.138Z,6.60
2018-12-18T00:27:55.920Z,6.60
2018-12-18T00:30:24.816Z,6.60
2018-12-18T00:32:53.636Z,6.60
2018-12-18T00:35:22.418Z,6.60
2018-12-18T00:37:51.190Z,6.60
2018-12-18T00:40:20.131Z,6.60
2018-12-18T00:42:49.019Z,6.60
2018-12-18T00:45:17.990Z,6.60
2018-12-18T00:47:46.742Z,6.60
2018-12-18T00:50:15.674Z,6.60
2018-12-18T00:52:44.746Z,6.60
2018-12-18T00:55:13.589Z,6.60
2018-12-18T00:57:42.470Z,6.60
2018-12-18T01:00:11.766Z,6.70
2018-12-18T01:02:40.614Z,6.70
2018-12-18T01:05:09.550Z,6.70
2018-12-18T01:07:38.394Z,6.80
2018-12-18T01:10:07.311Z,6.80
2018-12-18T01:12:36.087Z,6.80
2018-12-18T01:15:05.258Z,6.80
2018-12-18T01:17:34.022Z,6.90
2018-12-18T01:20:02.958Z,6.90
2018-12-18T01:22:31.755Z,6.90
2018-12-18T01:25:00.545Z,6.90
2018-12-18T01:27:29.396Z,6.90
2018-12-18T01:29:58.242Z,6.90
2018-12-18T01:32:27.003Z,6.90
2018-12-18T01:34:55.783Z,6.80
2018-12-18T01:37:24.569Z,6.80
2018-12-18T01:39:53.335Z,6.80
2018-12-18T01:42:22.155Z,6.70
2018-12-18T01:44:50.937Z,6.70
2018-12-18T01:47:19.739Z,6.70
2018-12-18T01:49:48.674Z,6.60
2018-12-18T01:52:17.475Z,6.50
2018-12-18T01:54:46.266Z,6.40
2018-12-18T01:57:15.046Z,6.30
2018-12-18T01:59:43.929Z,6.20
2018-12-18T02:02:12.715Z,6.10
2018-12-18T02:04:41.555Z,6.00
2018-12-18T02:07:10.429Z,6.00
2018-12-18T02:09:39.234Z,6.00
2018-12-18T02:12:08.011Z,5.90
2018-12-18T02:14:36.834Z,5.80
2018-12-18T02:17:05.632Z,5.70
2018-12-18T02:19:34.410Z,5.60
2018-12-18T02:22:03.284Z,5.60
2018-12-18T02:24:32.065Z,5.70
2018-12-18T02:27:00.982Z,5.70
2018-12-18T02:29:29.760Z,5.70
2018-12-18T02:31:58.517Z,5.80
2018-12-18T02:34:27.321Z,5.80
2018-12-18T02:36:56.092Z,5.80
2018-12-18T02:39:24.871Z,5.80
2018-12-18T02:41:53.678Z,5.70
2018-12-18T02:44:22.513Z,5.60
2018-12-18T02:46:51.295Z,5.60
2018-12-18T02:49:20.321Z,5.60
2018-12-18T02:51:49.090Z,5.60
2018-12-18T02:54:17.872Z,5.60
2018-12-18T02:56:46.638Z,5.60
2018-12-18T02:59:15.431Z,5.60
2018-12-18T03:01:44.208Z,5.60
2018-12-18T03:04:13.077Z,5.50
2018-12-18T03:06:41.858Z,5.50
2018-12-18T03:09:10.619Z,5.50
2018-12-18T03:11:39.383Z,5.60
2018-12-18T03:14:08.154Z,5.60
2018-12-18T03:16:36.928Z,5.60
2018-12-18T03:19:05.853Z,5.60
2018-12-18T03:21:34.662Z,5.60
2018-12-18T03:24:03.518Z,5.70
2018-12-18T03:26:32.371Z,5.60
2018-12-18T03:29:01.230Z,5.60
2018-12-18T03:31:30.551Z,5.60
2018-12-18T03:33:59.364Z,5.50
2018-12-18T03:36:28.106Z,5.50
2018-12-18T03:38:56.928Z,5.50
2018-12-18T03:41:25.985Z,5.50
2018-12-18T03:43:54.772Z,5.60
2018-12-18T03:46:23.561Z,5.60
2018-12-18T03:48:52.397Z,5.50
2018-12-18T03:51:21.172Z,5.50
2018-12-18T03:53:49.952Z,5.40
2018-12-18T03:56:18.744Z,5.30
2018-12-18T03:58:47.656Z,5.30
2018-12-18T04:01:16.447Z,5.20
2018-12-18T04:03:45.257Z,5.10
2018-12-18T04:06:14.043Z,5.00
2018-12-18T04:08:42.887Z,5.00
2018-12-18T04:11:11.667Z,5.00
2018-12-18T04:13:40.438Z,5.00
2018-12-18T04:16:09.231Z,5.00
2018-12-18T04:18:38.064Z,5.00
2018-12-18T04:21:06.838Z,5.00
2018-12-18T04:23:35.598Z,5.00
2018-12-18T04:26:04.463Z,5.00
2018-12-18T04:28:33.249Z,5.00
2018-12-18T04:31:02.049Z,5.00
2018-12-18T04:33:30.837Z,5.00
2018-12-18T04:35:59.624Z,5.00
2018-12-18T04:38:28.474Z,5.00
2018-12-18T04:40:57.290Z,5.00
2018-12-18T04:43:26.137Z,5.00
2018-12-18T04:45:54.889Z,5.00
2018-12-18T04:48:23.713Z,5.00
2018-12-18T04:50:52.533Z,5.00
2018-12-18T04:53:21.301Z,5.00
2018-12-18T04:55:50.112Z,5.00
2018-12-18T04:58:18.882Z,5.00
2018-12-18T05:00:47.671Z,5.00
2018-12-18T05:03:16.436Z,5.10
2018-12-18T05:05:45.201Z,5.10
2018-12-18T05:08:13.986Z,5.10
2018-12-18T05:10:42.786Z,5.10
2018-12-18T05:13:11.554Z,5.10
2018-12-18T05:15:40.575Z,5.10
2018-12-18T05:18:09.369Z,5.00
2018-12-18T05:20:38.134Z,5.00
2018-12-18T05:23:06.962Z,5.00
2018-12-18T05:25:35.750Z,5.00
2018-12-18T05:28:04.520Z,5.00
2018-12-18T05:30:33.294Z,5.00
2018-12-18T05:33:02.085Z,5.10
2018-12-18T05:35:30.877Z,5.10
2018-12-18T05:37:59.730Z,5.10
2018-12-18T05:40:28.505Z,5.20
2018-12-18T05:42:57.501Z,5.20
2018-12-18T05:45:26.260Z,5.30
2018-12-18T05:47:55.122Z,5.40
2018-12-18T05:50:23.880Z,5.40
2018-12-18T05:52:52.773Z,5.40
2018-12-18T05:55:21.604Z,5.40
2018-12-18T05:57:50.437Z,5.30
2018-12-18T06:00:19.274Z,5.30
2018-12-18T06:02:48.071Z,5.20
2018-12-18T06:05:16.840Z,5.10
2018-12-18T06:07:45.684Z,5.10
2018-12-18T06:10:14.458Z,5.10
2018-12-18T06:12:43.307Z,5.00
2018-12-18T06:15:12.101Z,5.00
2018-12-18T06:17:40.978Z,5.00
2018-12-18T06:20:09.871Z,5.00
2018-12-18T06:22:38.646Z,5.00
2018-12-18T06:25:07.592Z,4.90
2018-12-18T06:27:36.444Z,5.00
2018-12-18T06:30:05.753Z,5.00
2018-12-18T06:32:34.628Z,5.00
2018-12-18T06:35:09.994Z,5.00
2018-12-18T06:37:34.298Z,5.00
2018-12-18T06:40:03.364Z,5.00
2018-12-18T06:42:32.241Z,5.00
2018-12-18T06:45:00.959Z,5.10
2018-12-18T06:47:29.788Z,5.00
2018-12-18T06:49:58.630Z,5.00
2018-12-18T06:52:27.403Z,5.10
2018-12-18T06:54:56.192Z,5.10
2018-12-18T06:57:24.959Z,5.00
2018-12-18T06:59:53.749Z,5.00
2018-12-18T07:02:22.502Z,5.00
2018-12-18T07:04:51.274Z,5.00
2018-12-18T07:07:20.041Z,5.00
2018-12-18T07:09:48.818Z,5.00
2018-12-18T07:12:17.681Z,5.00
2018-12-18T07:14:46.457Z,5.10
2018-12-18T07:17:15.212Z,5.00
2018-12-18T07:19:44.013Z,5.10
2018-12-18T07:22:13.343Z,5.10
2018-12-18T07:24:42.131Z,5.10
2018-12-18T07:27:10.886Z,5.10
2018-12-18T07:29:39.671Z,5.10
2018-12-18T07:32:08.441Z,5.10
2018-12-18T07:34:37.210Z,5.10
2018-12-18T07:37:06.006Z,5.10
2018-12-18T07:39:34.806Z,5.20
2018-12-18T07:42:03.645Z,5.20
2018-12-18T07:44:32.415Z,5.20
2018-12-18T07:47:02.238Z,5.20
2018-12-18T07:49:31.015Z,5.30
2018-12-18T07:51:59.838Z,5.30
2018-12-18T07:54:28.615Z,5.40
2018-12-18T07:56:57.503Z,5.50
2018-12-18T07:59:26.313Z,5.50
2018-12-18T08:01:55.919Z,5.60
2018-12-18T08:04:24.691Z,5.70
2018-12-18T08:06:53.467Z,5.70
2018-12-18T08:09:22.241Z,5.80
2018-12-18T08:11:51.126Z,5.90
2018-12-18T08:14:19.899Z,6.00
2018-12-18T08:16:48.650Z,6.20
2018-12-18T08:19:17.434Z,6.80
2018-12-18T08:21:46.216Z,7.30
2018-12-18T08:24:15.002Z,8.00
2018-12-18T08:26:44.899Z,9.10
2018-12-18T08:29:13.694Z,10.00
2018-12-18T08:31:42.463Z,10.00
2018-12-18T08:34:11.248Z,9.70
2018-12-18T08:36:40.029Z,9.70
2018-12-18T08:39:09.496Z,9.80
2018-12-18T08:41:38.252Z,9.40
2018-12-18T08:44:07.107Z,9.00
2018-12-18T08:46:35.938Z,8.60
2018-12-18T08:49:04.708Z,8.20
2018-12-18T08:51:33.488Z,7.90
2018-12-18T08:54:02.254Z,7.80
2018-12-18T08:56:31.141Z,7.80
2018-12-18T08:58:59.902Z,8.10
2018-12-18T09:01:29.842Z,9.10
2018-12-18T09:03:58.692Z,10.40
2018-12-18T09:06:27.554Z,11.60
2018-12-18T09:08:56.342Z,12.40
2018-12-18T09:11:25.120Z,12.90
2018-12-18T09:13:53.903Z,12.80
2018-12-18T09:16:28.227Z,12.20
2018-12-18T09:18:56.993Z,11.70
2018-12-18T09:21:25.929Z,12.30
2018-12-18T09:23:54.773Z,13.20
2018-12-18T09:26:23.575Z,13.40
2018-12-18T09:28:52.348Z,13.30
2018-12-18T09:31:21.128Z,13.60
2018-12-18T09:33:49.903Z,13.60
2018-12-18T09:36:18.703Z,13.30
2018-12-18T09:38:53.935Z,13.10
2018-12-18T09:41:25.588Z,13.50
2018-12-18T09:44:00.662Z,14.20
2018-12-18T09:46:29.510Z,14.50
2018-12-18T09:48:58.291Z,13.90
2018-12-18T09:51:27.224Z,13.40
2018-12-18T09:53:55.986Z,13.40
2018-12-18T09:56:24.801Z,13.90
2018-12-18T09:58:53.581Z,14.70
2018-12-18T10:01:22.378Z,14.70
2018-12-18T10:03:51.159Z,15.00
2018-12-18T10:06:20.026Z,15.60
2018-12-18T10:08:49.900Z,16.30
2018-12-18T10:11:18.729Z,16.70
2018-12-18T10:13:47.494Z,17.00
2018-12-18T10:16:16.270Z,16.70
2018-12-18T10:18:45.048Z,16.40
2018-12-18T10:21:13.846Z,16.10
2018-12-18T10:23:42.638Z,16.30
2018-12-18T10:26:11.429Z,16.10
2018-12-18T10:28:40.213Z,16.30
2018-12-18T10:31:08.992Z,16.30
2018-12-18T10:33:37.766Z,16.00
2018-12-18T10:36:06.554Z,15.70
2018-12-18T10:38:35.407Z,15.30
2018-12-18T10:41:04.244Z,15.20
2018-12-18T10:43:33.129Z,15.10
2018-12-18T10:46:01.890Z,14.80
2018-12-18T10:48:30.663Z,14.40
2018-12-18T10:50:59.721Z,13.70
2018-12-18T10:53:28.626Z,13.10
2018-12-18T10:55:57.417Z,12.50
2018-12-18T10:58:26.266Z,12.10
2018-12-18T11:01:00.567Z,11.80
2018-12-18T11:03:29.353Z,11.50
2018-12-18T11:05:58.149Z,11.20
2018-12-18T11:08:26.933Z,10.90
2018-12-18T11:10:55.694Z,10.60
2018-12-18T11:13:24.520Z,10.50
2018-12-18T11:15:53.416Z,10.40
2018-12-18T11:18:22.305Z,10.40
2018-12-18T11:20:51.167Z,10.40
2018-12-18T11:23:19.947Z,10.40
2018-12-18T11:25:49.761Z,10.50
2018-12-18T11:28:18.562Z,10.50
2018-12-18T11:30:47.340Z,10.40
2018-12-18T11:33:16.183Z,10.40
2018-12-18T11:35:44.961Z,10.30
2018-12-18T11:38:13.742Z,10.40
2018-12-18T11:40:42.510Z,10.30
2018-12-18T11:43:11.284Z,10.30
2018-12-18T11:45:40.129Z,10.10
2018-12-18T11:48:08.898Z,10.00
2018-12-18T11:50:37.679Z,10.10
2018-12-18T11:53:06.766Z,10.20
2018-12-18T11:55:35.674Z,10.10
2018-12-18T11:58:04.561Z,10.20
2018-12-18T12:00:33.461Z,10.20
2018-12-18T12:03:02.309Z,10.20
2018-12-18T12:05:33.038Z,10.20
2018-12-18T12:08:01.878Z,10.20
2018-12-18T12:10:30.685Z,10.30
2018-12-18T12:12:59.472Z,10.40
2018-12-18T12:15:28.268Z,10.30
2018-12-18T12:17:57.103Z,10.30
2018-12-18T12:20:25.974Z,10.30
2018-12-18T12:22:54.819Z,10.20
2018-12-18T12:25:23.590Z,10.10
2018-12-18T12:27:57.653Z,10.10
2018-12-18T12:30:26.502Z,10.20
2018-12-18T12:32:55.281Z,10.30
2018-12-18T12:35:24.054Z,10.30
2018-12-18T12:37:52.838Z,10.20
2018-12-18T12:40:21.603Z,10.10
2018-12-18T12:42:50.374Z,10.10
2018-12-18T12:45:19.194Z,9.90
2018-12-18T12:47:51.378Z,9.90
2018-12-18T12:50:20.278Z,9.80
2018-12-18T12:52:49.060Z,9.70
2018-12-18T12:55:18.086Z,9.60
2018-12-18T12:57:46.910Z,9.60
2018-12-18T13:00:15.740Z,9.50
2018-12-18T13:02:44.541Z,9.40
2018-12-18T13:05:13.384Z,9.30
2018-12-18T13:07:42.237Z,9.20
2018-12-18T13:10:11.083Z,9.20
2018-12-18T13:12:39.851Z,9.30
2018-12-18T13:15:08.793Z,9.20
2018-12-18T13:17:37.627Z,9.20
2018-12-18T13:20:06.642Z,9.20
2018-12-18T13:22:35.502Z,9.20
2018-12-18T13:25:05.123Z,9.10
2018-12-18T13:27:33.883Z,9.00
2018-12-18T13:30:02.726Z,9.00
2018-12-18T13:32:32.624Z,8.90
2018-12-18T13:35:01.458Z,8.80
2018-12-18T13:37:30.234Z,8.80
2018-12-18T13:39:58.978Z,8.70
2018-12-18T13:42:27.757Z,8.70
2018-12-18T13:44:56.527Z,8.60
2018-12-18T13:47:27.272Z,8.40
2018-12-18T13:49:56.037Z,8.40
2018-12-18T13:52:24.809Z,8.20
2018-12-18T13:54:53.589Z,8.20
2018-12-18T13:57:22.393Z,8.10
2018-12-18T13:59:51.174Z,8.10
2018-12-18T14:02:19.921Z,8.00
2018-12-18T14:04:48.687Z,7.90
2018-12-18T14:07:17.445Z,7.90
2018-12-18T14:09:46.321Z,7.90
2018-12-18T14:12:16.026Z,7.80
2018-12-18T14:14:44.809Z,7.80
2018-12-18T14:17:13.603Z,7.70
2018-12-18T14:19:42.378Z,7.60
2018-12-18T14:22:11.146Z,7.60
2018-12-18T14:24:39.980Z,7.40
2018-12-18T14:27:08.837Z,7.40
2018-12-18T14:29:37.594Z,7.40
2018-12-18T14:32:06.439Z,7.30
2018-12-18T14:34:35.211Z,7.30
2018-12-18T14:37:04.102Z,7.20
2018-12-18T14:39:32.885Z,7.20
2018-12-18T14:42:01.652Z,7.20
2018-12-18T14:44:30.423Z,7.10
2018-12-18T14:46:59.188Z,7.10
2018-12-18T14:49:27.963Z,7.10
2018-12-18T14:51:56.718Z,7.10
2018-12-18T14:54:25.957Z,7.00
2018-12-18T14:56:54.735Z,7.00
2018-12-18T14:59:23.777Z,7.00
2018-12-18T15:01:52.621Z,6.90
2018-12-18T15:04:21.447Z,6.90
2018-12-18T15:06:50.202Z,6.80
2018-12-18T15:09:18.982Z,6.80
2018-12-18T15:11:47.750Z,6.80
2018-12-18T15:14:16.509Z,6.70
2018-12-18T15:16:45.411Z,6.60
2018-12-18T15:19:14.218Z,6.60
2018-12-18T15:21:43.056Z,6.60
2018-12-18T15:24:11.819Z,6.50
2018-12-18T15:26:40.662Z,6.60
2018-12-18T15:29:09.502Z,6.60
2018-12-18T15:31:38.246Z,6.60
2018-12-18T15:34:07.025Z,6.50
2018-12-18T15:36:35.869Z,6.50
2018-12-18T15:39:06.589Z,6.50
2018-12-18T15:41:36.549Z,6.40
2018-12-18T15:44:05.485Z,6.50
2018-12-18T15:46:34.314Z,6.50
2018-12-18T15:49:03.169Z,6.40
2018-12-18T15:51:32.000Z,6.40
2018-12-18T15:54:00.773Z,6.40
2018-12-18T15:56:29.534Z,6.40
2018-12-18T15:58:58.302Z,6.50
2018-12-18T16:01:27.089Z,6.40
2018-12-18T16:03:55.861Z,6.50
2018-12-18T16:06:24.606Z,6.40
2018-12-18T16:08:53.382Z,6.40
2018-12-18T16:11:22.128Z,6.40
2018-12-18T16:13:50.907Z,6.40
2018-12-18T16:16:19.745Z,6.40
2018-12-18T16:18:48.601Z,6.30
2018-12-18T16:21:17.458Z,6.30
2018-12-18T16:23:46.357Z,6.30
2018-12-18T16:26:17.107Z,6.30
2018-12-18T16:28:45.867Z,6.40
2018-12-18T16:31:14.632Z,6.40
2018-12-18T16:33:43.387Z,6.40
2018-12-18T16:36:12.288Z,6.40
2018-12-18T16:38:41.042Z,6.40
2018-12-18T16:41:09.801Z,6.40
2018-12-18T16:43:38.558Z,6.50
2018-12-18T16:48:52.191Z,6.50
2018-12-18T16:51:21.102Z,6.50
2018-12-18T16:53:49.976Z,6.50
2018-12-18T16:56:18.751Z,6.50
2018-12-18T16:58:47.515Z,6.50
2018-12-18T17:01:16.297Z,6.50
2018-12-18T17:03:45.114Z,6.50
2018-12-18T17:06:21.543Z,6.50
2018-12-18T17:08:51.499Z,6.50
2018-12-18T17:11:20.300Z,6.60
2018-12-18T17:13:49.125Z,6.50
2018-12-18T17:16:17.930Z,6.50
2018-12-18T17:18:46.799Z,6.60
2018-12-18T17:21:15.567Z,6.50
2018-12-18T17:23:44.327Z,6.60
2018-12-18T17:26:19.865Z,6.50
2018-12-18T17:28:48.730Z,6.50
2018-12-18T17:31:18.551Z,6.50
2018-12-18T17:33:47.330Z,6.50
2018-12-18T17:36:16.095Z,6.40
2018-12-18T17:38:44.862Z,6.40
2018-12-18T17:41:13.627Z,6.30
2018-12-18T17:43:42.731Z,6.40
2018-12-18T17:46:11.554Z,6.40
2018-12-18T17:48:40.383Z,6.30
2018-12-18T17:51:09.142Z,6.30
2018-12-18T17:53:37.910Z,6.30
2018-12-18T17:56:06.894Z,6.20
2018-12-18T17:58:35.683Z,6.20
2018-12-18T18:01:04.555Z,6.20
2018-12-18T18:03:33.320Z,6.30
2018-12-18T18:06:02.391Z,6.30
2018-12-18T18:08:31.157Z,6.30
2018-12-18T18:10:59.929Z,6.30
2018-12-18T18:13:28.722Z,6.20
2018-12-18T18:15:57.579Z,6.30
2018-12-18T18:18:26.359Z,6.30
2018-12-18T18:20:55.134Z,6.30
2018-12-18T18:23:24.943Z,6.30
2018-12-18T18:25:54.044Z,6.20
2018-12-18T18:28:22.865Z,6.20
2018-12-18T18:30:51.626Z,6.20
2018-12-18T18:33:21.339Z,6.20
2018-12-18T18:35:50.116Z,6.20
2018-12-18T18:38:18.859Z,6.20
2018-12-18T18:40:47.622Z,6.10
2018-12-18T18:43:16.367Z,6.10
2018-12-18T18:45:45.219Z,6.10
2018-12-18T18:48:14.018Z,6.10
2018-12-18T18:50:43.851Z,6.20
2018-12-18T18:53:12.621Z,6.20
2018-12-18T18:55:41.702Z,6.20
2018-12-18T18:58:10.450Z,6.20
2018-12-18T19:00:39.214Z,6.20
2018-12-18T19:03:07.987Z,6.20
2018-12-18T19:05:36.822Z,6.20
2018-12-18T19:08:05.655Z,6.20
2018-12-18T19:10:34.473Z,6.20
2018-12-18T19:13:03.256Z,6.30
2018-12-18T19:15:33.030Z,6.30
2018-12-18T19:18:01.808Z,6.30
2018-12-18T19:20:31.548Z,6.30
2018-12-18T19:23:00.310Z,6.30
2018-12-18T19:25:29.087Z,6.40
2018-12-18T19:27:57.887Z,6.30
2018-12-18T19:30:26.771Z,6.30
2018-12-18T19:32:55.598Z,6.40
2018-12-18T19:35:24.452Z,6.40
2018-12-18T19:37:53.489Z,6.40
2018-12-18T19:40:22.422Z,6.40
2018-12-18T19:42:51.200Z,6.40
2018-12-18T19:45:19.991Z,6.40
2018-12-18T19:47:48.770Z,6.50
2018-12-18T19:50:17.558Z,6.50
2018-12-18T19:52:46.353Z,6.50
2018-12-18T19:55:15.342Z,6.40
2018-12-18T19:57:44.102Z,6.50
2018-12-18T20:00:13.018Z,6.50
2018-12-18T20:02:41.812Z,6.50
2018-12-18T20:05:10.633Z,6.50
2018-12-18T20:07:40.436Z,6.50
2018-12-18T20:10:09.376Z,6.50
2018-12-18T20:12:38.159Z,6.60
2018-12-18T20:15:07.126Z,6.60
2018-12-18T20:17:35.933Z,6.60
2018-12-18T20:20:05.547Z,6.60
2018-12-18T20:22:34.583Z,6.60
2018-12-18T20:25:05.185Z,6.60
2018-12-18T20:27:33.938Z,6.60
2018-12-18T20:30:03.057Z,6.70
2018-12-18T20:32:31.886Z,6.70
2018-12-18T20:35:01.635Z,6.70
2018-12-18T20:40:16.098Z,6.70
2018-12-18T20:42:45.065Z,6.70
2018-12-18T20:45:13.838Z,6.80
2018-12-18T20:47:42.642Z,6.70
2018-12-18T20:50:11.553Z,6.70
2018-12-18T20:52:40.332Z,6.70
2018-12-18T20:55:09.111Z,6.70
2018-12-18T20:57:38.921Z,6.70
2018-12-18T21:00:10.204Z,6.70
2018-12-18T21:02:39.182Z,6.70
2018-12-18T21:05:09.213Z,6.70
2018-12-18T21:07:38.057Z,6.70
2018-12-18T21:10:08.079Z,6.70
2018-12-18T21:12:36.982Z,6.80
2018-12-18T21:15:06.571Z,6.80
2018-12-18T21:17:35.420Z,6.80
2018-12-18T21:20:05.274Z,6.80
2018-12-18T21:22:34.116Z,6.80
2018-12-18T21:25:03.132Z,6.80
2018-12-18T21:27:31.978Z,6.80
2018-12-18T21:30:00.918Z,6.80
2018-12-18T21:32:36.287Z,6.80
2018-12-18T21:35:05.540Z,6.80
2018-12-18T21:37:34.390Z,6.80
2018-12-18T21:40:03.478Z,6.80
2018-12-18T21:42:32.358Z,6.80
2018-12-18T21:45:01.426Z,6.90
2018-12-18T21:47:30.292Z,6.90
2018-12-18T21:49:59.288Z,6.90
2018-12-18T21:52:28.264Z,6.90
2018-12-18T21:54:59.525Z,6.90
2018-12-18T21:57:28.442Z,6.90
2018-12-18T21:59:57.326Z,6.90
2018-12-18T22:02:26.279Z,6.90
2018-12-18T22:04:55.102Z,6.90
2018-12-18T22:07:24.163Z,6.90
2018-12-18T22:09:53.080Z,6.90
2018-12-18T22:12:23.894Z,6.90
2018-12-18T22:14:52.742Z,6.90
2018-12-18T22:17:21.622Z,6.90
2018-12-18T22:19:50.491Z,6.90
2018-12-18T22:22:19.362Z,6.90
2018-12-18T22:24:48.286Z,6.90
2018-12-18T22:27:17.077Z,6.90
2018-12-18T22:29:45.934Z,6.90
2018-12-18T22:32:14.858Z,6.90
2018-12-18T22:34:43.651Z,7.00
2018-12-18T22:37:14.395Z,6.90
2018-12-18T22:39:43.661Z,7.00
2018-12-18T22:42:12.985Z,7.00
2018-12-18T22:44:42.945Z,6.90
2018-12-18T22:47:14.386Z,6.90
2018-12-18T22:49:44.099Z,6.90
2018-12-18T22:52:12.991Z,6.90
2018-12-18T22:54:42.194Z,7.00
2018-12-18T22:57:11.798Z,7.00
2018-12-18T22:59:40.614Z,6.90
2018-12-18T23:02:15.878Z,6.90
2018-12-18T23:04:46.272Z,6.90
2018-12-18T23:07:15.466Z,6.90
2018-12-18T23:09:44.571Z,6.90
2018-12-18T23:12:13.453Z,6.90
2018-12-18T23:14:42.905Z,6.90
2018-12-18T23:17:12.032Z,6.90
2018-12-18T23:19:40.945Z,6.90
2018-12-18T23:22:09.738Z,6.90
2018-12-18T23:24:39.079Z,7.00
2018-12-18T23:27:10.346Z,7.00
2018-12-18T23:29:39.431Z,7.00
2018-12-18T23:32:08.344Z,7.00
2018-12-18T23:34:37.507Z,7.10
2018-12-18T23:37:06.716Z,7.10
2018-12-18T23:39:35.616Z,7.10
2018-12-18T23:42:05.216Z,7.00
2018-12-18T23:44:34.340Z,7.10
2018-12-18T23:47:03.413Z,7.10
2018-12-18T23:49:32.190Z,7.10
2018-12-18T23:52:01.061Z,7.10
2018-12-18T23:54:30.024Z,7.20
2018-12-18T23:56:59.885Z,7.20
2018-12-18T23:59:29.067Z,7.20
